TBO weather

Tabora Airport
Tabora, Tabora Region, Tanzania

Public forecast

Using degrees Celsius for public forecast. Weather courtesy of forecast.io.

Current aviation weather report (METAR) for Tabora Airport

Retrieved 2020/07/10 12:00 UTC (1 hour ago):

HTTB 101200Z 12010KT 9999 SCT020 BKN080 27/15 Q1016 NOSIG

Aviation forecast (TAF) for Tabora Airport

Forecast is more than 12 hours old.

Retrieved 2020-06-28 00:51 UTC (13 days ago):

TAF HTTB 272300Z 2800/2824 14010KT 9999 FEW024